Time;durP1;ratioP1;P1;durP2;ratioP2;P2;SDS_P1;SDS_P2;PMS_P1;PMS_P2;Temp;Humidity;BMP_temperature;BMP_pressure;BME280_temperature;BME280_humidity;BME280_pressure;Samples;Min_cycle;Max_cycle;Signal;HPM_P1;HPM_P2
2023/11/09 00:01:53;;;;;;;21.20;12.00;;;;;;;14.65;54.66;99653.64;108093;1256;70329;-67
2023/11/09 00:04:20;;;;;;;20.70;12.20;;;;;;;14.70;54.52;99656.55;108014;1257;72916;-66
2023/11/09 00:06:47;;;;;;;22.80;13.40;;;;;;;14.56;54.62;99655.42;108038;1253;60996;-66
2023/11/09 00:09:13;;;;;;;21.70;13.10;;;;;;;14.46;54.91;99657.61;108018;1253;61516;-66
2023/11/09 00:11:40;;;;;;;25.50;13.80;;;;;;;14.49;55.03;99659.72;108057;1253;73678;-67
2023/11/09 00:14:15;;;;;;;25.00;13.50;;;;;;;14.36;55.30;99662.65;108078;1253;70420;-66
2023/11/09 00:16:43;;;;;;;19.00;11.90;;;;;;;14.41;55.26;99662.52;108046;1254;72417;-66
2023/11/09 00:19:09;;;;;;;20.50;12.40;;;;;;;14.29;55.40;99660.38;108079;1253;60284;-67
2023/11/09 00:21:37;;;;;;;20.10;12.10;;;;;;;14.30;55.56;99658.91;108091;1253;60323;-67
2023/11/09 00:24:06;;;;;;;21.20;12.50;;;;;;;14.30;55.60;99653.64;108064;1253;73720;-66
2023/11/09 00:26:33;;;;;;;26.10;14.20;;;;;;;14.27;55.80;99657.85;108013;1253;68926;-66
2023/11/09 00:29:00;;;;;;;25.40;14.30;;;;;;;14.28;55.82;99653.57;107978;1253;72497;-67
2023/11/09 00:31:26;;;;;;;27.70;14.40;;;;;;;14.24;55.90;99658.75;107991;1253;60457;-67
2023/11/09 00:33:53;;;;;;;23.70;13.60;;;;;;;14.18;56.00;99659.31;108047;1253;60336;-65
2023/11/09 00:36:19;;;;;;;21.50;14.50;;;;;;;14.20;56.14;99661.84;108066;1254;73756;-65
2023/11/09 00:38:49;;;;;;;28.20;15.70;;;;;;;14.20;56.05;99658.80;108047;1253;70321;-67
2023/11/09 00:41:16;;;;;;;25.40;13.80;;;;;;;14.23;55.95;99658.45;107855;1253;72462;-66
2023/11/09 00:43:44;;;;;;;26.40;16.10;;;;;;;14.46;55.56;99662.73;107967;1255;61090;-67
2023/11/09 00:46:11;;;;;;;25.80;15.40;;;;;;;14.54;55.23;99662.65;107984;1253;60297;-66
2023/11/09 00:48:37;;;;;;;25.70;15.80;;;;;;;14.54;55.35;99662.64;107987;1253;72490;-66
2023/11/09 00:51:04;;;;;;;24.80;15.10;;;;;;;14.47;55.46;99664.61;107982;1253;69137;-67
2023/11/09 00:53:31;;;;;;;24.20;15.20;;;;;;;14.45;55.46;99668.23;107988;1253;70673;-65
2023/11/09 00:55:57;;;;;;;30.10;15.30;;;;;;;14.48;55.42;99661.91;108042;1253;61527;-65
2023/11/09 00:58:24;;;;;;;25.50;16.60;;;;;;;14.53;55.38;99667.08;108049;1253;60373;-65
2023/11/09 01:00:51;;;;;;;24.60;15.00;;;;;;;14.52;55.24;99664.49;108028;1257;73828;-67
2023/11/09 01:03:18;;;;;;;26.30;15.60;;;;;;;14.48;55.17;99664.55;108019;1253;70366;-67
2023/11/09 01:05:45;;;;;;;22.80;16.00;;;;;;;14.52;55.18;99670.86;108008;1254;72682;-67
2023/11/09 01:08:12;;;;;;;22.30;15.00;;;;;;;14.55;55.03;99670.88;108140;1253;61091;-67
2023/11/09 01:10:39;;;;;;;26.40;16.90;;;;;;;14.51;54.89;99679.94;107829;1253;60434;-67
2023/11/09 01:13:06;;;;;;;27.10;15.90;;;;;;;14.40;54.91;99680.77;108077;1254;73631;-65
2023/11/09 01:15:33;;;;;;;25.20;16.00;;;;;;;14.41;54.93;99684.73;107957;1260;70376;-64
2023/11/09 01:18:01;;;;;;;29.00;15.80;;;;;;;14.46;54.72;99676.69;107873;1253;72472;-67
2023/11/09 01:20:29;;;;;;;27.00;17.60;;;;;;;14.46;54.75;99675.84;108103;1253;61024;-67
2023/11/09 01:22:55;;;;;;;24.70;15.40;;;;;;;14.38;54.90;99674.85;107934;1253;60345;-68
2023/11/09 01:25:22;;;;;;;24.40;16.30;;;;;;;14.16;55.69;99680.89;107925;1253;73894;-67
2023/11/09 01:27:49;;;;;;;27.60;17.50;;;;;;;13.67;56.91;99677.77;108002;1253;68948;-65
2023/11/09 01:30:16;;;;;;;21.60;14.40;;;;;;;14.05;56.29;99675.96;107783;1253;72476;-67
2023/11/09 01:32:42;;;;;;;25.10;17.10;;;;;;;14.00;56.38;99676.59;107965;1257;59745;-67
2023/11/09 01:35:09;;;;;;;32.20;16.40;;;;;;;14.02;56.30;99682.29;108001;1257;60332;-67
2023/11/09 01:37:36;;;;;;;25.40;15.60;;;;;;;14.20;55.89;99680.71;107939;1253;74028;-67
2023/11/09 01:40:04;;;;;;;26.00;16.30;;;;;;;13.97;56.27;99680.29;107904;1253;70254;-66
2023/11/09 01:42:30;;;;;;;23.10;15.60;;;;;;;13.89;56.37;99674.58;108065;1253;72949;-66
2023/11/09 01:44:57;;;;;;;21.80;15.90;;;;;;;14.14;55.89;99683.02;108056;1253;61102;-66
2023/11/09 01:47:24;;;;;;;22.90;15.70;;;;;;;14.04;56.02;99683.73;107936;1253;60389;-66
2023/11/09 01:49:50;;;;;;;18.70;13.60;;;;;;;14.02;56.17;99682.98;107958;1253;73923;-66
2023/11/09 01:52:17;;;;;;;20.30;13.10;;;;;;;14.14;56.09;99680.38;107791;1253;69159;-67
2023/11/09 01:54:44;;;;;;;22.20;14.60;;;;;;;14.34;55.46;99680.55;108054;1254;72612;-67
2023/11/09 01:57:11;;;;;;;21.70;13.70;;;;;;;14.47;55.26;99682.64;107796;1253;60867;-66
2023/11/09 01:59:43;;;;;;;21.70;14.40;;;;;;;14.49;55.11;99683.73;107895;1253;60335;-66
2023/11/09 02:02:10;;;;;;;26.10;14.40;;;;;;;14.42;55.49;99685.06;108130;1255;73897;-67
2023/11/09 02:04:36;;;;;;;20.30;14.20;;;;;;;14.41;55.42;99685.10;107825;1256;70181;-67
2023/11/09 02:07:04;;;;;;;22.60;14.40;;;;;;;14.36;55.57;99685.59;107648;1255;72674;-68
2023/11/09 02:09:31;;;;;;;22.20;13.90;;;;;;;14.25;55.74;99683.23;107849;1256;61085;-67
2023/11/09 02:12:01;;;;;;;21.50;13.80;;;;;;;14.18;55.92;99688.40;107872;1256;60422;-65
2023/11/09 02:14:27;;;;;;;19.30;12.40;;;;;;;14.05;56.10;99685.97;108019;1256;74360;-67
2023/11/09 02:16:54;;;;;;;23.50;14.60;;;;;;;14.26;55.71;99681.22;107996;1256;69445;-64
2023/11/09 02:19:22;;;;;;;24.50;15.40;;;;;;;14.33;55.40;99682.59;107714;1256;72487;-67
2023/11/09 02:21:52;;;;;;;24.70;13.80;;;;;;;14.41;55.19;99685.25;107921;1255;60868;-66
2023/11/09 02:24:19;;;;;;;22.50;14.90;;;;;;;14.32;55.40;99686.36;107707;1258;60777;-66
2023/11/09 02:26:47;;;;;;;19.50;13.50;;;;;;;14.13;55.93;99685.19;107908;1256;73962;-67
2023/11/09 02:29:14;;;;;;;23.20;14.60;;;;;;;14.21;55.86;99688.04;107779;1256;70138;-67
2023/11/09 02:31:41;;;;;;;23.80;14.10;;;;;;;13.71;57.06;99691.98;107893;1256;72793;-67
2023/11/09 02:34:12;;;;;;;18.00;12.40;;;;;;;13.56;57.34;99694.08;107845;1257;61192;-66
2023/11/09 02:36:39;;;;;;;23.70;15.50;;;;;;;13.63;57.29;99702.52;107888;1256;60397;-66
2023/11/09 02:39:05;;;;;;;24.20;13.70;;;;;;;13.61;57.24;99700.34;107998;1256;75220;-67
2023/11/09 02:41:32;;;;;;;25.40;14.90;;;;;;;13.60;57.44;99704.45;107895;1260;68546;-67
2023/11/09 02:43:58;;;;;;;26.10;15.80;;;;;;;13.54;57.73;99709.02;107986;1254;72704;-66
2023/11/09 02:46:25;;;;;;;28.30;14.30;;;;;;;13.53;57.60;99715.59;107884;1255;61257;-66
2023/11/09 02:48:52;;;;;;;22.80;14.20;;;;;;;13.55;57.65;99712.12;108055;1256;60473;-67
2023/11/09 02:51:18;;;;;;;25.70;14.80;;;;;;;13.80;57.04;99714.64;108039;1258;73888;-67
2023/11/09 02:56:05;;;;;;;25.60;15.60;;;;;;;11.42;65.27;99724.61;105203;1286;600314;-66
2023/11/09 02:58:36;;;;;;;26.00;14.80;;;;;;;12.86;60.50;99720.79;107291;1269;60858;-67
2023/11/09 03:01:04;;;;;;;26.80;15.40;;;;;;;13.32;59.22;99725.95;107242;1266;60439;-66
2023/11/09 03:03:32;;;;;;;23.20;14.60;;;;;;;13.17;59.48;99724.98;107594;1259;71032;-66
2023/11/09 03:05:59;;;;;;;26.30;16.20;;;;;;;13.04;59.80;99722.27;107624;1260;68888;-66
2023/11/09 03:08:28;;;;;;;24.50;15.00;;;;;;;12.99;60.00;99720.07;107595;1260;71626;-67
2023/11/09 03:10:56;;;;;;;24.20;15.20;;;;;;;13.09;59.83;99723.65;107605;1257;60141;-67
2023/11/09 03:13:23;;;;;;;24.60;16.10;;;;;;;13.10;59.99;99728.30;107777;1257;59976;-67
2023/11/09 03:15:51;;;;;;;24.70;16.40;;;;;;;13.16;60.03;99731.17;107792;1256;72238;-67
2023/11/09 03:18:19;;;;;;;31.90;16.50;;;;;;;13.23;59.71;99728.33;107765;1257;70871;-66
2023/11/09 03:20:47;;;;;;;25.90;14.20;;;;;;;13.09;60.18;99728.00;107834;1256;72070;-67
2023/11/09 03:23:15;;;;;;;24.70;14.10;;;;;;;12.99;60.40;99732.10;107833;1256;60833;-68
2023/11/09 03:25:43;;;;;;;24.70;14.50;;;;;;;13.00;60.56;99734.52;107718;1257;60101;-66
2023/11/09 03:28:10;;;;;;;24.90;15.30;;;;;;;12.94;60.70;99733.95;107859;1257;72734;-66
2023/11/09 03:30:38;;;;;;;26.70;15.10;;;;;;;12.74;61.25;99727.20;107857;1256;68847;-66
2023/11/09 03:33:06;;;;;;;24.00;14.60;;;;;;;12.75;61.34;99728.95;107811;1257;73963;-66
2023/11/09 03:35:33;;;;;;;23.00;15.00;;;;;;;12.86;61.10;99733.47;107907;1260;61240;-66
2023/11/09 03:38:01;;;;;;;25.60;15.70;;;;;;;12.88;60.97;99738.85;107810;1262;59206;-66
2023/11/09 03:40:28;;;;;;;27.50;16.70;;;;;;;12.94;60.95;99741.50;107739;1255;71783;-66
2023/11/09 03:42:56;;;;;;;30.10;16.40;;;;;;;13.04;60.72;99745.56;107876;1258;70247;-67
2023/11/09 03:45:23;;;;;;;26.30;15.60;;;;;;;12.90;61.10;99751.94;107776;1256;74977;-66
2023/11/09 03:47:53;;;;;;;27.40;16.40;;;;;;;12.69;61.82;99752.84;107908;1257;60971;-66
2023/11/09 03:50:21;;;;;;;25.60;16.40;;;;;;;12.72;61.82;99757.77;107905;1257;59939;-66
2023/11/09 03:52:50;;;;;;;27.90;17.00;;;;;;;12.78;61.74;99759.09;107890;1258;73442;-67
2023/11/09 03:55:17;;;;;;;25.30;16.20;;;;;;;12.84;61.68;99761.40;107905;1256;69010;-67
2023/11/09 03:57:45;;;;;;;28.30;16.40;;;;;;;12.89;61.65;99758.54;107905;1258;72849;-67
2023/11/09 04:00:13;;;;;;;29.60;17.30;;;;;;;12.84;61.94;99757.21;107898;1257;59585;-66
2023/11/09 04:02:42;;;;;;;25.30;15.80;;;;;;;12.87;61.79;99761.27;107680;1257;59660;-67
2023/11/09 04:05:10;;;;;;;25.70;15.90;;;;;;;12.93;61.76;99760.92;107791;1256;72140;-66
2023/11/09 04:07:41;;;;;;;30.20;18.10;;;;;;;13.05;61.56;99763.11;107861;1257;70682;-66
2023/11/09 04:10:09;;;;;;;23.50;15.50;;;;;;;13.10;61.36;99766.05;107832;1257;72491;-66
2023/11/09 04:12:37;;;;;;;30.10;18.50;;;;;;;13.11;61.45;99761.94;107678;1257;59101;-67
2023/11/09 04:15:05;;;;;;;28.00;17.60;;;;;;;13.19;61.22;99765.55;107768;1256;60017;-67
2023/11/09 04:17:32;;;;;;;24.60;14.90;;;;;;;13.23;61.21;99765.17;107834;1257;73353;-66
2023/11/09 04:20:00;;;;;;;30.40;18.60;;;;;;;13.33;60.79;99765.89;107850;1257;69989;-66
2023/11/09 04:22:27;;;;;;;30.50;18.60;;;;;;;13.36;60.67;99769.79;107773;1256;72682;-66
2023/11/09 04:24:55;;;;;;;35.60;20.00;;;;;;;13.37;60.77;99773.45;107807;1257;60046;-67
2023/11/09 04:27:22;;;;;;;29.60;18.10;;;;;;;13.42;60.59;99772.98;107834;1256;60092;-65
2023/11/09 04:29:50;;;;;;;30.10;18.90;;;;;;;13.40;60.68;99774.31;107848;1257;72193;-66
2023/11/09 04:32:18;;;;;;;30.10;17.90;;;;;;;13.52;60.39;99775.44;107673;1262;68857;-65
2023/11/09 04:34:46;;;;;;;28.10;16.80;;;;;;;13.55;60.13;99772.47;107801;1257;72720;-66
2023/11/09 04:37:14;;;;;;;27.50;17.50;;;;;;;13.55;60.08;99771.91;107764;1256;60289;-66
2023/11/09 04:39:42;;;;;;;28.90;18.10;;;;;;;13.61;60.02;99773.88;107746;1257;59485;-68
2023/11/09 04:42:18;;;;;;;28.90;17.70;;;;;;;13.56;60.01;99777.00;107787;1257;72860;-67
2023/11/09 04:44:46;;;;;;;32.20;20.10;;;;;;;13.48;60.15;99778.11;107828;1257;70309;-69
2023/11/09 04:47:14;;;;;;;34.50;21.10;;;;;;;13.46;60.20;99783.52;107784;1258;72738;-67
2023/11/09 04:49:57;;;;;;;38.10;20.80;;;;;;;13.49;60.07;99783.70;107803;1257;60938;-67
2023/11/09 04:52:31;;;;;;;33.90;20.60;;;;;;;13.46;60.08;99788.27;107836;1258;59487;-65
2023/11/09 04:55:14;;;;;;;32.50;19.70;;;;;;;13.49;59.84;99797.65;107699;1258;72931;-64
2023/11/09 05:08:51;;;;;;;36.40;20.60;;;;;;;13.55;60.02;99806.67;107874;1256;72982;-66
2023/11/09 05:11:18;;;;;;;32.60;19.80;;;;;;;13.51;60.21;99812.92;107849;1257;70088;-67
2023/11/09 05:13:46;;;;;;;26.70;17.20;;;;;;;13.63;60.08;99814.36;107923;1258;71683;-66
2023/11/09 05:16:13;;;;;;;39.10;21.00;;;;;;;13.74;59.69;99817.30;107894;1260;59552;-67
2023/11/09 05:18:43;;;;;;;33.80;20.80;;;;;;;13.72;59.76;99817.91;107969;1256;59492;-65
2023/11/09 05:21:11;;;;;;;33.60;20.10;;;;;;;13.69;59.77;99822.69;107934;1255;73087;-66
2023/11/09 05:23:39;;;;;;;33.50;20.20;;;;;;;13.73;59.62;99827.25;107958;1257;70560;-68
2023/11/09 05:26:06;;;;;;;34.90;20.90;;;;;;;13.65;59.76;99832.05;107978;1257;72680;-66
2023/11/09 05:28:34;;;;;;;35.60;20.00;;;;;;;13.72;59.72;99831.71;107878;1257;59746;-66
2023/11/09 05:31:02;;;;;;;32.00;20.10;;;;;;;13.77;59.43;99831.25;108109;1254;59127;-66
2023/11/09 05:33:30;;;;;;;31.30;18.50;;;;;;;13.79;59.46;99835.21;108110;1253;72022;-66
2023/11/09 05:36:00;;;;;;;34.30;20.70;;;;;;;13.86;59.32;99837.09;108053;1254;69516;-66
2023/11/09 05:38:27;;;;;;;29.90;18.40;;;;;;;13.85;59.24;99838.58;108096;1254;72607;-67
2023/11/09 05:40:55;;;;;;;32.60;20.60;;;;;;;13.92;59.01;99844.54;108039;1259;60402;-67
2023/11/09 05:43:22;;;;;;;31.10;20.40;;;;;;;13.80;59.31;99842.15;108041;1253;60005;-67
2023/11/09 05:45:50;;;;;;;31.60;20.30;;;;;;;13.87;59.00;99842.48;108026;1254;73037;-67
2023/11/09 05:48:17;;;;;;;39.70;20.00;;;;;;;13.68;59.39;99846.70;108039;1254;70100;-66
2023/11/09 05:50:45;;;;;;;34.80;19.80;;;;;;;13.55;59.50;99846.52;108031;1254;71464;-67
2023/11/09 05:53:12;;;;;;;35.80;18.50;;;;;;;13.69;59.22;99848.63;108049;1254;59576;-67
2023/11/09 05:55:40;;;;;;;35.30;20.50;;;;;;;13.79;59.02;99849.29;108064;1252;60059;-66
2023/11/09 05:58:08;;;;;;;30.90;18.70;;;;;;;13.92;58.56;99851.40;108026;1258;71808;-65
2023/11/09 06:00:38;;;;;;;39.50;21.20;;;;;;;13.94;58.50;99851.08;108198;1256;69007;-66
2023/11/09 06:03:06;;;;;;;36.70;21.40;;;;;;;14.00;58.32;99852.86;108283;1251;71967;-66
2023/11/09 06:05:33;;;;;;;35.10;21.20;;;;;;;14.16;58.06;99858.04;108293;1251;59974;-67
2023/11/09 06:08:04;;;;;;;37.30;22.10;;;;;;;14.22;57.90;99861.57;108264;1251;59997;-67
2023/11/09 06:10:31;;;;;;;36.60;19.80;;;;;;;14.15;57.90;99861.45;108326;1251;74079;-67
2023/11/09 06:12:58;;;;;;;40.20;23.00;;;;;;;14.21;57.83;99867.96;108315;1251;69408;-67
2023/11/09 06:15:26;;;;;;;34.30;19.90;;;;;;;14.22;57.73;99870.89;108251;1251;72647;-66
2023/11/09 06:17:55;;;;;;;30.50;20.30;;;;;;;14.23;57.74;99876.89;108273;1252;60802;-67
2023/11/09 06:20:22;;;;;;;36.70;21.20;;;;;;;14.33;57.59;99882.15;108290;1251;60373;-66
2023/11/09 06:22:53;;;;;;;36.70;22.30;;;;;;;14.37;57.26;99885.05;108258;1256;73086;-67
2023/11/09 06:25:20;;;;;;;37.20;21.60;;;;;;;14.28;57.39;99884.53;108354;1251;70169;-66
2023/11/09 06:27:48;;;;;;;37.20;21.70;;;;;;;14.20;57.61;99891.02;108301;1251;71453;-67
2023/11/09 06:30:15;;;;;;;33.30;20.20;;;;;;;14.13;57.85;99894.19;108282;1251;60802;-67
2023/11/09 06:32:43;;;;;;;32.90;20.40;;;;;;;14.20;57.95;99898.25;108318;1251;60165;-66
2023/11/09 06:35:13;;;;;;;34.20;21.10;;;;;;;14.34;57.38;99896.54;108313;1251;71793;-66
2023/11/09 06:37:43;;;;;;;32.40;19.00;;;;;;;14.38;57.25;99901.10;108292;1251;69226;-66
2023/11/09 06:40:11;;;;;;;36.70;22.20;;;;;;;14.32;57.30;99901.11;108264;1251;72413;-66
2023/11/09 06:42:39;;;;;;;34.20;20.90;;;;;;;14.33;57.13;99901.38;108225;1252;59539;-67
2023/11/09 06:45:07;;;;;;;28.50;18.50;;;;;;;14.55;56.69;99897.86;108082;1254;59958;-66
2023/11/09 06:47:39;;;;;;;36.40;20.70;;;;;;;14.67;56.39;99900.21;108074;1254;72457;-67
2023/11/09 06:50:11;;;;;;;36.90;21.20;;;;;;;14.84;56.19;99908.38;107936;1254;69192;-67
2023/11/09 06:52:40;;;;;;;38.80;21.90;;;;;;;14.94;55.91;99907.45;108050;1258;71479;-67
2023/11/09 06:55:10;;;;;;;32.20;20.70;;;;;;;14.93;55.98;99910.34;108032;1253;60271;-66
2023/11/09 06:57:39;;;;;;;39.80;21.70;;;;;;;15.00;55.82;99910.66;108057;1254;59602;-66
2023/11/09 07:00:10;;;;;;;35.70;20.10;;;;;;;15.06;55.73;99911.90;108182;1251;71717;-66
2023/11/09 07:02:43;;;;;;;33.70;19.10;;;;;;;15.07;55.82;99912.68;108224;1256;68685;-66
2023/11/09 07:05:11;;;;;;;28.30;18.40;;;;;;;15.14;55.74;99911.98;108139;1254;71444;-67
2023/11/09 07:07:38;;;;;;;31.50;18.70;;;;;;;14.89;56.04;99914.63;108170;1254;59942;-67
2023/11/09 07:10:07;;;;;;;26.60;18.20;;;;;;;13.79;58.93;99916.33;108181;1254;60321;-67
2023/11/09 07:12:35;;;;;;;34.50;20.90;;;;;;;14.06;58.65;99918.20;108085;1253;72165;-67
2023/11/09 07:15:03;;;;;;;33.50;20.30;;;;;;;14.62;57.10;99917.65;108197;1251;72461;-67
2023/11/09 07:17:31;;;;;;;34.10;20.20;;;;;;;14.93;56.37;99927.33;108005;1254;72732;-68
2023/11/09 07:19:59;;;;;;;31.10;20.30;;;;;;;15.17;55.87;99920.09;108124;1254;60642;-68
2023/11/09 07:22:26;;;;;;;30.00;18.40;;;;;;;15.34;55.51;99928.45;108176;1254;60274;-67
2023/11/09 07:24:56;;;;;;;30.70;20.00;;;;;;;15.47;55.10;99934.58;108145;1254;73919;-65
2023/11/09 07:27:39;;;;;;;35.10;21.30;;;;;;;15.55;54.71;99940.61;108151;1254;71419;-67
2023/11/09 07:30:07;;;;;;;31.30;17.60;;;;;;;15.27;55.29;99941.23;108106;1254;71673;-66
2023/11/09 07:32:35;;;;;;;31.20;19.80;;;;;;;14.96;56.38;99941.63;108087;1254;60977;-66
2023/11/09 07:35:03;;;;;;;31.70;19.60;;;;;;;15.61;54.91;99936.88;108098;1254;60404;-67
2023/11/09 07:37:31;;;;;;;27.70;18.00;;;;;;;15.57;55.02;99939.08;108116;1254;73843;-66
2023/11/09 07:39:58;;;;;;;34.90;19.50;;;;;;;15.60;55.00;99943.13;108111;1254;72780;-66
2023/11/09 07:42:25;;;;;;;28.00;17.30;;;;;;;15.76;54.65;99939.02;108066;1252;72787;-66
2023/11/09 07:44:53;;;;;;;31.30;19.20;;;;;;;15.74;54.61;99944.80;108045;1254;60488;-66
2023/11/09 07:47:20;;;;;;;26.90;17.40;;;;;;;15.77;53.96;99947.98;108170;1254;60334;-67
2023/11/09 07:49:50;;;;;;;27.20;16.40;;;;;;;15.64;53.76;99944.66;108202;1254;74555;-67
2023/11/09 07:52:18;;;;;;;32.40;17.90;;;;;;;15.53;54.19;99944.08;108154;1254;70629;-66
2023/11/09 07:54:48;;;;;;;31.00;17.90;;;;;;;15.73;53.74;99953.19;108142;1255;70205;-67
2023/11/09 07:57:16;;;;;;;30.00;17.90;;;;;;;15.90;53.70;99951.08;108143;1254;60268;-67
2023/11/09 07:59:45;;;;;;;28.70;16.20;;;;;;;15.97;53.57;99954.72;108130;1251;60971;-67
2023/11/09 08:02:13;;;;;;;24.30;14.50;;;;;;;16.05;53.04;99957.02;108258;1257;73829;-67
2023/11/09 08:04:41;;;;;;;24.20;15.40;;;;;;;16.19;52.44;99957.61;108239;1251;70132;-67
2023/11/09 08:07:08;;;;;;;24.10;15.80;;;;;;;16.26;52.04;99956.29;108381;1254;73413;-67
2023/11/09 08:09:37;;;;;;;24.90;14.70;;;;;;;16.29;52.25;99958.00;108329;1254;60459;-67
2023/11/09 08:12:05;;;;;;;24.90;14.90;;;;;;;16.38;52.05;99957.48;108347;1252;60411;-67
2023/11/09 08:14:33;;;;;;;20.80;13.50;;;;;;;16.61;51.65;99958.44;108254;1251;72644;-67
2023/11/09 08:17:01;;;;;;;21.20;13.30;;;;;;;16.82;51.33;99958.49;108312;1251;69966;-66
2023/11/09 08:19:29;;;;;;;26.30;14.40;;;;;;;16.85;50.72;99962.40;108348;1252;72831;-67
2023/11/09 08:21:57;;;;;;;21.20;12.70;;;;;;;16.99;50.74;99963.48;108318;1256;60381;-67
2023/11/09 08:24:24;;;;;;;20.10;13.70;;;;;;;17.30;50.57;99964.40;108341;1252;60009;-66
2023/11/09 08:26:52;;;;;;;21.90;12.40;;;;;;;17.42;50.11;99962.52;108315;1251;72028;-67
2023/11/09 08:29:19;;;;;;;19.10;12.40;;;;;;;17.60;49.53;99962.52;108307;1251;70539;-67
2023/11/09 08:31:47;;;;;;;20.60;13.20;;;;;;;17.78;49.03;99962.21;108329;1256;71389;-66
2023/11/09 08:34:16;;;;;;;26.80;13.80;;;;;;;17.83;48.70;99966.26;108252;1251;60826;-66
2023/11/09 08:36:46;;;;;;;21.80;12.90;;;;;;;17.89;48.56;99968.59;108246;1253;60544;-66
2023/11/09 08:39:19;;;;;;;20.90;12.90;;;;;;;17.85;48.14;99967.08;108265;1251;74791;-66
2023/11/09 08:41:47;;;;;;;;;;;;;;;17.97;47.83;99966.06;108151;1251;70749;-68
2023/11/09 08:44:15;;;;;;;25.10;13.10;;;;;;;17.84;47.82;99972.45;108282;1251;72833;-68
2023/11/09 08:46:42;;;;;;;20.60;11.60;;;;;;;17.98;48.15;99974.63;108279;1256;62906;-67
2023/11/09 08:49:10;;;;;;;22.50;11.20;;;;;;;18.16;47.52;99976.94;108203;1251;60395;-67
2023/11/09 08:51:39;;;;;;;21.40;11.90;;;;;;;18.20;47.14;99978.95;108296;1256;73766;-67
2023/11/09 08:54:07;;;;;;;16.10;9.90;;;;;;;18.44;46.83;99983.15;108143;1257;71053;-66
2023/11/09 08:56:38;;;;;;;18.90;10.80;;;;;;;18.54;46.65;99989.19;108324;1257;72886;-65
2023/11/09 08:59:06;;;;;;;22.30;10.90;;;;;;;18.51;46.53;99989.17;108319;1253;62228;-67
2023/11/09 09:01:34;;;;;;;15.40;10.50;;;;;;;18.38;46.56;99986.27;108143;1253;61020;-68
2023/11/09 09:04:03;;;;;;;18.70;12.10;;;;;;;18.44;46.17;99988.66;108143;1256;73969;-67
2023/11/09 09:06:31;;;;;;;17.60;12.20;;;;;;;18.32;46.33;99997.66;108186;1255;70421;-68
2023/11/09 09:08:59;;;;;;;15.80;10.30;;;;;;;18.38;46.56;99998.64;108120;1254;71446;-68
2023/11/09 09:11:30;;;;;;;21.80;11.70;;;;;;;18.43;46.41;99998.13;108133;1254;60551;-65
2023/11/09 09:13:58;;;;;;;16.60;10.40;;;;;;;18.47;45.87;100000.12;108141;1254;60509;-66
2023/11/09 09:16:28;;;;;;;19.90;10.90;;;;;;;18.65;45.60;100001.02;108138;1256;75139;-66
2023/11/09 09:18:56;;;;;;;22.20;10.00;;;;;;;18.81;45.62;99996.80;108077;1254;72644;-67
2023/11/09 09:21:23;;;;;;;13.70;9.40;;;;;;;18.99;44.70;99997.08;108057;1254;71654;-64
2023/11/09 09:23:53;;;;;;;14.60;9.00;;;;;;;19.07;44.65;99998.29;108199;1254;62691;-68
2023/11/09 09:26:21;;;;;;;13.90;8.50;;;;;;;19.28;44.38;99994.60;108167;1252;61054;-66
2023/11/09 09:28:48;;;;;;;12.70;8.10;;;;;;;19.60;44.19;100002.28;108143;1255;76003;-68
2023/11/09 09:31:20;;;;;;;11.70;7.70;;;;;;;17.90;46.58;99997.39;108166;1255;69211;-67
2023/11/09 09:34:02;;;;;;;12.50;7.30;;;;;;;17.60;46.65;100001.04;108157;1254;72769;-68
2023/11/09 09:36:33;;;;;;;14.30;7.80;;;;;;;17.56;47.18;100005.02;108201;1254;61761;-68
2023/11/09 09:39:02;;;;;;;13.10;7.40;;;;;;;17.79;47.01;100002.39;108171;1252;60335;-68
2023/11/09 09:41:33;;;;;;;25.70;9.00;;;;;;;18.85;44.47;100004.67;108183;1256;74296;-66
2023/11/09 09:44:01;;;;;;;15.90;8.20;;;;;;;19.36;43.51;100004.83;108136;1254;70273;-67
2023/11/09 09:46:31;;;;;;;11.50;7.90;;;;;;;19.54;42.88;100010.42;108098;1255;70525;-67
2023/11/09 09:49:03;;;;;;;11.50;7.20;;;;;;;19.60;42.92;100010.01;108134;1254;60716;-67
2023/11/09 09:51:34;;;;;;;14.30;8.30;;;;;;;19.67;42.52;100012.33;108153;1254;59111;-66
2023/11/09 09:54:02;;;;;;;14.90;7.80;;;;;;;19.62;42.08;100013.17;108129;1257;73134;-67
2023/11/09 09:56:30;;;;;;;12.40;7.40;;;;;;;19.62;42.40;100010.87;108190;1256;69957;-66
2023/11/09 09:58:57;;;;;;;11.70;7.60;;;;;;;19.50;42.37;100010.52;107938;1253;73242;-66
2023/11/09 10:01:25;;;;;;;13.00;7.30;;;;;;;19.44;42.09;100009.89;108167;1255;62006;-66
2023/11/09 10:03:53;;;;;;;12.00;7.70;;;;;;;19.41;42.34;100007.52;108340;1251;60299;-66
2023/11/09 10:06:21;;;;;;;11.90;7.40;;;;;;;19.34;42.27;100008.55;108114;1256;72620;-66
2023/11/09 10:08:49;;;;;;;12.40;8.70;;;;;;;19.18;42.39;100007.08;108337;1251;68961;-68
2023/11/09 10:11:17;;;;;;;14.00;8.20;;;;;;;19.01;42.55;100006.34;108343;1253;72710;-67
2023/11/09 10:13:45;;;;;;;15.10;7.80;;;;;;;19.08;42.82;100007.83;108330;1257;61830;-67
2023/11/09 10:16:16;;;;;;;19.40;9.00;;;;;;;19.16;42.89;100012.55;108278;1257;60357;-67
2023/11/09 10:18:43;;;;;;;15.50;7.90;;;;;;;19.23;42.98;100012.26;108270;1251;76068;-67
2023/11/09 10:21:12;;;;;;;16.20;8.00;;;;;;;19.53;42.69;100018.83;108101;1251;68731;-67
2023/11/09 10:23:40;;;;;;;15.30;8.90;;;;;;;19.84;42.38;100014.03;108304;1257;72233;-66
2023/11/09 10:26:11;;;;;;;11.60;7.60;;;;;;;20.16;41.68;100017.39;108272;1251;61935;-67
2023/11/09 10:28:39;;;;;;;11.90;8.00;;;;;;;20.43;41.11;100021.48;108298;1251;60777;-67
2023/11/09 10:31:07;;;;;;;15.70;8.70;;;;;;;20.40;39.99;100026.56;108294;1256;76503;-67
2023/11/09 10:33:35;;;;;;;12.10;8.20;;;;;;;20.02;40.24;100033.47;108306;1251;70650;-67
2023/11/09 10:36:04;;;;;;;13.00;7.40;;;;;;;19.76;40.94;100039.09;108361;1254;71354;-66
2023/11/09 10:38:33;;;;;;;12.30;7.90;;;;;;;19.63;41.09;100038.08;108225;1257;64328;-67
2023/11/09 10:41:01;;;;;;;14.00;7.50;;;;;;;19.33;41.53;100037.95;108066;1260;60505;-67
2023/11/09 10:43:50;;;;;;;13.90;8.60;;;;;;;19.09;41.72;100040.81;108129;1251;73933;-67
2023/11/09 10:46:18;;;;;;;12.00;7.60;;;;;;;18.76;41.96;100039.35;108177;1256;72686;-67
2023/11/09 10:48:48;;;;;;;12.60;9.00;;;;;;;18.60;42.37;100042.23;108042;1259;71453;-68
2023/11/09 10:51:17;;;;;;;13.30;8.60;;;;;;;18.61;42.39;100046.58;108127;1251;60985;-67
2023/11/09 10:53:47;;;;;;;9.40;7.50;;;;;;;18.44;42.45;100052.08;108238;1251;61576;-67
2023/11/09 10:56:15;;;;;;;12.10;8.40;;;;;;;18.58;42.73;100046.84;108273;1251;74743;-67
2023/11/09 10:58:44;;;;;;;9.70;7.10;;;;;;;18.77;42.19;100050.42;108248;1256;69131;-67
2023/11/09 11:01:20;;;;;;;12.80;7.40;;;;;;;18.98;41.87;100051.27;108049;1254;74837;-67
2023/11/09 11:03:51;;;;;;;11.70;8.90;;;;;;;18.96;42.17;100055.10;108047;1254;63949;-67
2023/11/09 11:06:23;;;;;;;11.10;7.00;;;;;;;19.06;41.82;100059.05;108139;1255;60453;-67
2023/11/09 11:08:54;;;;;;;11.20;8.90;;;;;;;19.10;41.67;100063.70;108152;1254;72624;-67
2023/11/09 11:11:26;;;;;;;11.60;7.20;;;;;;;18.85;42.04;100067.70;108186;1253;69943;-67
2023/11/09 11:13:57;;;;;;;10.90;8.00;;;;;;;18.44;42.18;100068.42;108133;1254;72656;-67
2023/11/09 11:16:44;;;;;;;11.10;8.30;;;;;;;18.34;42.54;100066.30;108134;1254;60507;-67
2023/11/09 11:19:23;;;;;;;13.80;8.00;;;;;;;18.45;42.18;100069.44;108158;1254;62405;-67
2023/11/09 11:22:12;;;;;;;12.30;7.90;;;;;;;18.19;42.33;100069.15;108163;1254;74074;-67
2023/11/09 11:24:43;;;;;;;12.10;8.10;;;;;;;18.29;42.52;100074.11;108161;1254;72774;-66
2023/11/09 11:27:19;;;;;;;12.90;9.50;;;;;;;18.43;42.53;100074.70;108162;1257;73108;-67
2023/11/09 11:29:48;;;;;;;10.30;7.30;;;;;;;18.33;42.51;100075.44;108149;1254;60386;-68